Time;durP1;ratioP1;P1;durP2;ratioP2;P2;SDS_P1;SDS_P2;PMS_P1;PMS_P2;Temp;Humidity;BMP_temperature;BMP_pressure;BME280_temperature;BME280_humidity;BME280_pressure;Samples;Min_cycle;Max_cycle;Signal;HPM_P1;HPM_P2
2022/10/13 00:01:49;;;;;;;;;8.60;8.20;;;;;8.21;71.86;100316.38;5099277;28;8825;-60
2022/10/13 00:04:16;;;;;;;;;10.40;9.60;;;;;8.23;71.77;100311.84;5099003;28;8915;-61
2022/10/13 00:06:44;;;;;;;;;12.40;12.20;;;;;8.24;71.71;100312.69;5098656;28;8830;-63
2022/10/13 00:09:12;;;;;;;;;12.60;11.20;;;;;8.26;71.64;100324.91;5098005;28;8861;-61
2022/10/13 00:11:40;;;;;;;;;12.00;9.60;;;;;8.28;72.08;100315.03;5097614;28;8822;-61
2022/10/13 00:14:07;;;;;;;;;9.40;9.40;;;;;8.30;72.08;100317.59;5098168;28;8818;-61
2022/10/13 00:16:35;;;;;;;;;15.80;13.40;;;;;8.33;71.56;100320.91;5098420;28;8939;-63
2022/10/13 00:19:03;;;;;;;;;11.60;11.20;;;;;8.34;71.74;100317.31;5097646;28;8861;-61
2022/10/13 00:21:30;;;;;;;;;10.80;9.40;;;;;8.37;71.82;100319.75;5078080;28;9502;-61
2022/10/13 00:23:59;;;;;;;;;13.80;11.20;;;;;8.42;71.43;100325.63;5078497;28;8835;-61
2022/10/13 00:26:27;;;;;;;;;12.80;12.20;;;;;8.46;71.38;100321.84;5078430;28;8823;-63
2022/10/13 00:28:55;;;;;;;;;12.40;12.00;;;;;8.50;71.34;100317.19;5085811;28;8860;-63
2022/10/13 00:31:23;;;;;;;;;10.00;10.00;;;;;8.52;71.12;100321.41;5098704;28;8872;-62
2022/10/13 00:33:51;;;;;;;;;13.80;12.80;;;;;8.56;71.21;100319.41;5098778;28;8814;-62
2022/10/13 00:36:19;;;;;;;;;12.00;11.20;;;;;8.58;71.17;100309.56;5098589;28;8926;-63
2022/10/13 00:38:47;;;;;;;;;9.20;6.80;;;;;8.61;71.04;100306.69;5098116;28;8914;-61
2022/10/13 00:41:14;;;;;;;;;13.40;12.00;;;;;8.65;71.02;100303.75;5098285;28;8833;-62
2022/10/13 00:43:42;;;;;;;;;10.00;10.00;;;;;8.68;70.56;100300.88;5098072;28;8815;-61
2022/10/13 00:46:10;;;;;;;;;11.60;10.00;;;;;8.72;70.87;100299.72;5098490;28;8830;-61
2022/10/13 00:48:38;;;;;;;;;9.20;7.80;;;;;8.76;70.83;100292.41;5098164;28;8902;-61
2022/10/13 00:51:05;;;;;;;;;9.40;7.40;;;;;8.80;71.14;100293.94;5098067;28;8826;-63
2022/10/13 00:53:33;;;;;;;;;14.00;12.60;;;;;8.84;70.26;100295.41;5098395;28;8846;-61
2022/10/13 00:56:01;;;;;;;;;12.40;9.60;;;;;8.86;70.63;100294.34;5096724;28;9021;-61
2022/10/13 00:58:30;;;;;;;;;7.40;6.60;;;;;8.91;70.22;100300.22;5097944;28;9660;-61
2022/10/13 01:00:58;;;;;;;;;10.00;9.80;;;;;8.94;70.70;100288.50;5097938;28;8831;-61
2022/10/13 01:03:25;;;;;;;;;6.50;6.00;;;;;8.95;70.63;100293.72;5098103;28;8834;-63
2022/10/13 01:05:53;;;;;;;;;9.00;6.00;;;;;8.98;70.46;100284.72;5098401;28;8880;-63
2022/10/13 01:08:21;;;;;;;;;9.40;7.00;;;;;9.00;70.55;100286.31;5097935;28;8911;-62
2022/10/13 01:10:49;;;;;;;;;9.50;9.00;;;;;9.04;70.43;100289.63;5097979;28;8830;-60
2022/10/13 01:13:16;;;;;;;;;12.00;12.00;;;;;9.05;70.33;100286.84;5097943;28;8834;-61
2022/10/13 01:15:44;;;;;;;;;10.00;10.00;;;;;9.08;70.38;100288.44;5097598;28;8907;-61
2022/10/13 01:18:11;;;;;;;;;7.50;7.50;;;;;9.08;70.34;100277.81;5097465;28;8818;-61
2022/10/13 01:20:39;;;;;;;;;13.60;11.20;;;;;9.08;70.10;100272.50;5097639;28;8848;-60
2022/10/13 01:23:07;;;;;;;;;9.60;9.60;;;;;9.07;70.48;100276.97;5097653;28;8834;-61
2022/10/13 01:25:35;;;;;;;;;11.50;10.00;;;;;9.07;70.29;100270.78;5097619;28;8830;-61
2022/10/13 01:28:03;;;;;;;;;8.50;7.00;;;;;9.08;70.86;100270.69;5096828;28;8861;-61
2022/10/13 01:30:30;;;;;;;;;12.25;10.00;;;;;9.07;70.86;100262.81;5097267;28;8902;-62
2022/10/13 01:32:58;;;;;;;;;13.40;13.00;;;;;9.07;70.89;100261.03;5097387;28;8906;-60
2022/10/13 01:35:26;;;;;;;;;14.25;12.25;;;;;9.07;70.20;100252.22;5097496;28;8907;-60
2022/10/13 01:37:54;;;;;;;;;12.20;10.00;;;;;9.05;70.82;100254.94;5096896;28;8915;-61
2022/10/13 01:40:22;;;;;;;;;12.00;10.80;;;;;9.06;71.05;100246.06;5096749;28;8850;-60
2022/10/13 01:42:49;;;;;;;;;10.00;9.75;;;;;9.07;70.75;100238.91;5096806;28;8887;-61
2022/10/13 01:45:17;;;;;;;;;13.80;12.00;;;;;9.15;70.49;100242.75;5096782;28;8830;-60
2022/10/13 01:47:45;;;;;;;;;7.00;6.75;;;;;9.30;70.22;100239.03;5096945;28;9496;-63
2022/10/13 01:50:13;;;;;;;;;6.50;5.00;;;;;9.43;69.81;100228.41;5096462;28;8842;-60
2022/10/13 01:52:40;;;;;;;;;11.75;9.00;;;;;9.46;70.13;100229.03;5097104;28;8838;-63
2022/10/13 01:55:08;;;;;;;;;12.75;10.00;;;;;9.44;70.10;100223.00;5096999;28;9511;-60
2022/10/13 01:57:36;;;;;;;;;13.00;12.75;;;;;9.39;70.23;100218.94;5095438;28;8814;-62
2022/10/13 02:00:03;;;;;;;;;12.00;12.00;;;;;9.33;70.42;100214.91;5095047;28;8814;-60
2022/10/13 02:02:31;;;;;;;;;13.50;12.25;;;;;9.27;70.82;100211.84;5094989;28;8899;-60
2022/10/13 02:04:59;;;;;;;;;9.75;7.50;;;;;9.22;70.93;100225.44;5096726;28;8842;-60
2022/10/13 02:07:27;;;;;;;;;10.50;9.50;;;;;9.19;70.97;100212.34;5096288;28;8834;-60
2022/10/13 02:09:55;;;;;;;;;9.75;9.50;;;;;9.19;71.20;100220.31;5096000;28;8826;-60
2022/10/13 02:12:23;;;;;;;;;7.50;6.75;;;;;9.16;70.89;100215.22;5096273;28;8938;-60
2022/10/13 02:14:50;;;;;;;;;10.25;10.00;;;;;9.14;71.52;100214.50;5096668;28;8818;-62
2022/10/13 02:17:18;;;;;;;;;9.00;9.00;;;;;9.13;71.23;100211.94;5096472;28;8858;-60
2022/10/13 02:19:45;;;;;;;;;8.25;8.25;;;;;9.09;71.02;100208.66;5096589;28;8830;-62
2022/10/13 02:22:13;;;;;;;;;7.00;7.00;;;;;9.09;70.71;100211.31;5096388;28;8841;-60
2022/10/13 02:24:41;;;;;;;;;6.00;4.00;;;;;9.08;71.35;100211.41;5096477;28;9855;-61
2022/10/13 02:27:09;;;;;;;;;12.25;12.00;;;;;9.07;70.97;100213.22;5096186;28;8815;-60
2022/10/13 02:29:36;;;;;;;;;10.00;9.00;;;;;9.07;71.41;100213.22;5097017;28;8821;-61
2022/10/13 02:32:04;;;;;;;;;12.50;8.00;;;;;9.08;71.04;100211.41;5096290;28;8830;-60
2022/10/13 02:34:32;;;;;;;;;11.50;9.50;;;;;9.08;71.47;100201.63;5096275;28;8802;-60
2022/10/13 02:37:00;;;;;;;;;9.00;9.00;;;;;9.11;71.26;100209.38;5096199;28;8907;-60
2022/10/13 02:39:27;;;;;;;;;8.75;8.00;;;;;9.11;71.20;100209.38;5096149;28;8802;-60
2022/10/13 02:41:55;;;;;;;;;9.25;9.00;;;;;9.13;71.02;100207.47;5096070;28;8821;-61
2022/10/13 02:44:23;;;;;;;;;11.50;11.00;;;;;9.14;70.99;100211.84;5096067;28;8822;-61
2022/10/13 02:46:51;;;;;;;;;13.50;12.50;;;;;9.16;71.27;100212.56;5096720;28;8830;-60
2022/10/13 02:49:19;;;;;;;;;14.50;12.50;;;;;9.15;71.13;100210.88;5096410;28;8818;-61
2022/10/13 02:51:46;;;;;;;;;11.75;11.25;;;;;9.18;70.99;100210.66;5096473;28;8822;-61
2022/10/13 02:54:14;;;;;;;;;8.00;7.50;;;;;9.29;70.86;100207.25;5096155;28;8825;-60
2022/10/13 02:56:42;;;;;;;;;11.50;10.00;;;;;9.45;70.13;100206.06;5095857;28;8818;-62
2022/10/13 02:59:10;;;;;;;;;9.50;9.50;;;;;9.62;70.06;100210.16;5096139;28;9519;-60
2022/10/13 03:01:40;;;;;;;;;4.00;3.50;;;;;9.78;69.74;100211.63;5096113;28;8834;-60
2022/10/13 03:04:08;;;;;;;;;14.25;11.75;;;;;9.95;70.11;100221.06;5096452;28;9491;-61
2022/10/13 03:06:35;;;;;;;;;0.00;0.00;;;;;10.13;69.15;100212.63;5096180;28;8814;-61
2022/10/13 03:09:03;;;;;;;;;10.00;9.00;;;;;10.33;68.82;100211.16;5096031;28;8802;-60
2022/10/13 03:11:30;;;;;;;;;13.50;9.75;;;;;10.48;68.79;100212.66;5096226;28;8814;-61
2022/10/13 03:13:58;;;;;;;;;16.50;12.75;;;;;10.61;69.07;100198.31;5096283;28;8817;-60
2022/10/13 03:16:26;;;;;;;;;8.25;7.00;;;;;10.70;68.56;100202.94;5096532;28;8837;-61
2022/10/13 03:18:53;;;;;;;;;9.00;9.00;;;;;10.79;68.47;100207.56;5098872;28;8833;-61
2022/10/13 03:21:21;;;;;;;;;6.50;5.50;;;;;10.86;68.42;100203.44;5100046;28;8830;-61
2022/10/13 03:23:49;;;;;;;;;16.00;12.75;;;;;10.93;68.33;100199.34;5099934;28;8826;-60
2022/10/13 03:26:16;;;;;;;;;14.25;10.50;;;;;10.98;68.26;100201.66;5100110;28;9456;-61
2022/10/13 03:28:44;;;;;;;;;12.25;12.00;;;;;11.05;68.26;100197.56;5100109;28;8822;-62
2022/10/13 03:31:12;;;;;;;;;12.00;12.00;;;;;11.10;68.21;100188.25;5099938;28;8830;-61
2022/10/13 03:33:40;;;;;;;;;10.50;10.50;;;;;11.16;68.40;100185.09;5099642;28;8834;-60
2022/10/13 03:36:08;;;;;;;;;14.00;9.75;;;;;11.22;68.31;100189.94;5099638;28;9507;-60
2022/10/13 03:38:35;;;;;;;;;13.25;12.50;;;;;11.30;67.93;100197.38;5099222;28;8838;-61
2022/10/13 03:41:03;;;;;;;;;12.75;12.50;;;;;11.37;67.67;100183.41;5099624;28;8883;-60
2022/10/13 03:43:31;;;;;;;;;16.00;12.50;;;;;11.43;67.66;100185.59;5099888;28;8834;-61
2022/10/13 03:45:58;;;;;;;;;11.50;9.75;;;;;11.48;67.81;100186.09;5099609;28;8853;-61
2022/10/13 03:48:26;;;;;;;;;13.00;10.00;;;;;11.53;67.75;100183.06;5099410;28;8822;-60
2022/10/13 03:50:54;;;;;;;;;11.75;11.00;;;;;11.58;67.81;100187.09;5098726;28;8834;-61
2022/10/13 03:53:23;;;;;;;;;10.75;9.00;;;;;11.61;68.58;100176.16;5098340;28;8842;-61
2022/10/13 03:55:50;;;;;;;;;7.50;7.00;;;;;11.65;68.14;100177.63;5098057;28;8919;-61
2022/10/13 03:58:18;;;;;;;;;10.00;9.00;;;;;11.67;68.25;100175.66;5098189;28;8914;-63
2022/10/13 04:00:46;;;;;;;;;12.25;9.50;;;;;11.69;68.56;100180.91;5098126;28;8918;-63
2022/10/13 04:03:14;;;;;;;;;11.00;9.00;;;;;11.71;68.46;100177.13;5098541;28;8822;-62
2022/10/13 04:05:42;;;;;;;;;11.00;10.00;;;;;11.74;68.53;100176.88;5098599;28;8834;-62
2022/10/13 04:08:10;;;;;;;;;12.50;11.00;;;;;11.76;68.46;100177.59;5099265;28;8907;-62
2022/10/13 04:10:37;;;;;;;;;17.50;15.50;;;;;11.79;68.31;100172.03;5099352;28;8914;-62
2022/10/13 04:13:05;;;;;;;;;6.00;4.50;;;;;11.79;68.71;100172.03;5099289;28;8810;-61
2022/10/13 04:15:33;;;;;;;;;12.75;11.00;;;;;11.80;69.02;100171.06;5099109;28;8814;-60
2022/10/13 04:18:01;;;;;;;;;13.00;12.75;;;;;11.81;68.19;100161.22;5098700;28;8845;-61
2022/10/13 04:20:28;;;;;;;;;12.25;12.25;;;;;11.82;68.72;100154.94;5099256;28;8834;-60
2022/10/13 04:22:56;;;;;;;;;10.00;10.00;;;;;11.85;68.69;100158.19;5098990;28;9608;-62
2022/10/13 04:25:24;;;;;;;;;13.00;11.50;;;;;11.87;69.01;100152.72;5098392;28;8825;-61
2022/10/13 04:27:52;;;;;;;;;13.00;10.25;;;;;11.90;68.79;100144.47;5098571;28;8810;-63
2022/10/13 04:30:20;;;;;;;;;11.00;9.00;;;;;11.89;69.14;100145.44;5098607;28;8810;-63
2022/10/13 04:32:47;;;;;;;;;12.00;10.00;;;;;11.91;68.91;100146.16;5098603;28;8814;-63
2022/10/13 04:35:15;;;;;;;;;13.00;12.00;;;;;11.90;68.96;100139.97;5098537;28;9577;-62
2022/10/13 04:37:43;;;;;;;;;8.00;7.50;;;;;11.92;68.83;100143.38;5098210;28;8829;-61
2022/10/13 04:40:11;;;;;;;;;13.00;11.50;;;;;11.95;69.30;100143.13;5097933;28;8884;-63
2022/10/13 04:42:39;;;;;;;;;10.50;10.00;;;;;11.96;69.27;100128.78;5097891;28;8826;-60
2022/10/13 04:45:07;;;;;;;;;13.00;10.00;;;;;11.97;69.03;100130.50;5097907;28;8826;-61
2022/10/13 04:47:35;;;;;;;;;10.25;9.75;;;;;11.99;68.88;100128.53;5098334;28;8834;-63
2022/10/13 04:50:03;;;;;;;;;11.50;10.00;;;;;12.01;69.43;100121.28;5097731;28;8826;-61
2022/10/13 04:52:31;;;;;;;;;10.75;10.75;;;;;12.01;68.92;100124.78;5097912;28;8838;-62
2022/10/13 04:54:58;;;;;;;;;10.00;9.00;;;;;12.02;69.01;100136.31;5097545;28;8818;-61
2022/10/13 04:57:26;;;;;;;;;6.50;6.25;;;;;12.01;69.32;100134.63;5096476;28;8901;-60
2022/10/13 04:59:54;;;;;;;;;10.75;6.00;;;;;12.00;68.86;100130.25;5096760;28;8834;-61
2022/10/13 05:02:22;;;;;;;;;11.00;9.00;;;;;11.97;69.54;100125.16;5096834;28;8826;-61
2022/10/13 05:04:49;;;;;;;;;10.50;10.50;;;;;11.93;69.66;100123.72;5096911;28;9511;-60
2022/10/13 05:07:17;;;;;;;;;10.75;9.00;;;;;11.90;69.56;100123.13;5096996;28;8877;-61
2022/10/13 05:09:45;;;;;;;;;8.75;8.00;;;;;11.87;69.84;100118.03;5096950;28;8837;-60
2022/10/13 05:12:13;;;;;;;;;11.00;10.00;;;;;11.82;69.74;100120.25;5097239;28;8834;-60
2022/10/13 05:14:41;;;;;;;;;3.00;3.00;;;;;11.74;69.62;100115.50;5098006;28;8822;-63
2022/10/13 05:17:08;;;;;;;;;10.50;10.00;;;;;11.72;70.07;100113.94;5097308;28;8838;-61
2022/10/13 05:19:36;;;;;;;;;12.00;10.00;;;;;11.75;69.99;100114.53;5096295;28;8838;-60
2022/10/13 05:22:04;;;;;;;;;11.50;11.50;;;;;11.80;70.14;100117.69;5096669;28;8821;-61
2022/10/13 05:24:35;;;;;;;;;14.00;11.00;;;;;11.84;69.64;100113.78;5096250;28;8927;-60
2022/10/13 05:27:03;;;;;;;;;9.00;9.00;;;;;11.88;69.89;100114.38;5095934;28;8879;-61
2022/10/13 05:29:30;;;;;;;;;10.50;10.00;;;;;11.90;69.96;100118.63;5097409;28;9511;-61
2022/10/13 05:31:59;;;;;;;;;12.50;9.75;;;;;11.92;69.45;100116.69;5096795;28;8825;-63
2022/10/13 05:34:27;;;;;;;;;14.00;12.00;;;;;11.96;69.39;100118.13;5096543;28;8849;-61
2022/10/13 05:36:54;;;;;;;;;13.50;11.50;;;;;11.99;69.85;100124.06;5097090;28;8837;-61
2022/10/13 05:39:22;;;;;;;;;13.50;11.75;;;;;12.02;69.63;100123.78;5097052;28;8837;-61
2022/10/13 05:41:50;;;;;;;;;13.50;12.00;;;;;12.05;69.63;100123.56;5095411;28;8826;-60
2022/10/13 05:44:18;;;;;;;;;9.50;9.00;;;;;12.07;69.70;100116.25;5095974;28;8846;-61
2022/10/13 05:46:46;;;;;;;;;12.00;10.50;;;;;12.08;70.19;100112.63;5096395;28;8866;-60
2022/10/13 05:49:13;;;;;;;;;14.00;12.50;;;;;12.09;70.08;100108.97;5096355;28;8830;-60
2022/10/13 05:51:41;;;;;;;;;15.25;13.00;;;;;12.11;69.55;100104.38;5096197;28;8818;-60
2022/10/13 05:54:09;;;;;;;;;9.00;8.00;;;;;12.13;69.80;100110.41;5096744;28;8822;-60
2022/10/13 05:56:37;;;;;;;;;13.25;11.75;;;;;12.13;70.00;100115.75;5096102;28;8871;-59
2022/10/13 05:59:04;;;;;;;;;13.75;12.75;;;;;12.16;70.19;100112.00;5096403;28;8830;-62
2022/10/13 06:01:32;;;;;;;;;12.25;11.00;;;;;12.18;70.02;100107.38;5096238;28;9484;-60
2022/10/13 06:04:00;;;;;;;;;6.75;6.75;;;;;12.18;69.77;100104.69;5096403;28;8830;-60
2022/10/13 06:06:28;;;;;;;;;11.00;11.00;;;;;12.18;69.67;100112.69;5096313;28;8838;-60
2022/10/13 06:08:58;;;;;;;;;10.50;10.25;;;;;12.18;69.96;100110.03;5096236;28;8843;-60
2022/10/13 06:11:25;;;;;;;;;9.50;9.25;;;;;12.20;69.80;100103.59;5095012;28;8830;-63
2022/10/13 06:13:53;;;;;;;;;16.00;11.25;;;;;12.23;69.80;100094.50;5095277;28;8985;-61
2022/10/13 06:16:21;;;;;;;;;11.00;10.50;;;;;12.24;69.93;100101.50;5094726;28;8838;-63
2022/10/13 06:18:49;;;;;;;;;10.50;10.00;;;;;12.27;70.08;100090.56;5095399;28;8846;-63
2022/10/13 06:21:16;;;;;;;;;12.50;11.00;;;;;12.28;69.67;100094.94;5094827;28;8846;-60
2022/10/13 06:23:44;;;;;;;;;8.50;8.00;;;;;12.30;69.91;100104.50;5094901;28;9705;-61
2022/10/13 06:26:12;;;;;;;;;13.00;12.50;;;;;12.31;70.21;100100.03;5094461;28;8906;-62
2022/10/13 06:28:40;;;;;;;;;11.75;9.25;;;;;12.32;69.86;100104.38;5094407;28;8860;-60
2022/10/13 06:31:11;;;;;;;;;10.50;10.00;;;;;12.35;69.81;100102.31;5093315;28;8950;-61
2022/10/13 06:33:39;;;;;;;;;14.33;13.67;;;;;12.36;70.03;100101.31;5094253;28;8826;-60
2022/10/13 06:36:07;;;;;;;;;11.50;11.25;;;;;12.38;69.61;100087.84;5093625;28;8829;-60
2022/10/13 06:38:35;;;;;;;;;8.00;7.25;;;;;12.40;69.78;100084.06;5094413;28;8841;-61
2022/10/13 06:41:03;;;;;;;;;10.50;9.00;;;;;12.40;69.93;100064.53;5093886;28;8837;-61
2022/10/13 06:43:31;;;;;;;;;11.75;11.75;;;;;12.43;69.83;100080.28;5094219;28;8920;-61
2022/10/13 06:46:06;;;;;;;;;7.25;7.25;;;;;12.42;70.13;100073.25;5094445;28;8850;-61
2022/10/13 06:48:34;;;;;;;;;12.00;11.00;;;;;12.44;69.91;100076.63;5094492;28;8842;-62
2022/10/13 06:51:02;;;;;;;;;9.25;9.25;;;;;12.43;69.89;100082.94;5094588;28;8818;-61
2022/10/13 06:53:30;;;;;;;;;13.75;11.50;;;;;12.42;69.74;100083.94;5093556;28;8832;-60
2022/10/13 06:55:57;;;;;;;;;15.75;12.75;;;;;12.44;70.26;100071.28;5093825;28;8826;-61
2022/10/13 06:58:27;;;;;;;;;10.00;8.50;;;;;12.45;69.69;100086.34;5094860;28;8825;-61
2022/10/13 07:00:55;;;;;;;;;12.00;10.00;;;;;12.47;69.94;100079.06;5094234;28;8896;-62
2022/10/13 07:03:24;;;;;;;;;4.00;4.00;;;;;12.49;70.23;100079.75;5094641;28;8834;-63
2022/10/13 07:05:52;;;;;;;;;10.00;9.75;;;;;12.52;69.74;100082.16;5093778;28;8858;-63
2022/10/13 07:08:20;;;;;;;;;11.00;9.75;;;;;12.52;69.86;100075.00;5094330;28;8853;-62
2022/10/13 07:10:48;;;;;;;;;9.50;8.50;;;;;12.56;69.77;100065.75;5093996;28;8842;-61
2022/10/13 07:13:16;;;;;;;;;8.50;7.50;;;;;12.60;69.47;100071.69;5094751;28;8848;-60
2022/10/13 07:15:43;;;;;;;;;9.00;8.50;;;;;12.65;69.70;100067.63;5093849;28;9002;-61
2022/10/13 07:18:11;;;;;;;;;7.50;7.50;;;;;12.71;69.85;100059.09;5094133;28;8833;-60
2022/10/13 07:20:40;;;;;;;;;6.50;6.00;;;;;12.78;69.14;100067.41;5093847;28;8892;-62
2022/10/13 07:23:08;;;;;;;;;11.00;10.00;;;;;12.83;69.55;100075.91;5094135;28;8837;-61
2022/10/13 07:25:36;;;;;;;;;10.00;9.50;;;;;12.88;69.32;100087.00;5094398;28;8841;-61
2022/10/13 07:28:03;;;;;;;;;12.00;8.25;;;;;12.93;69.03;100082.13;5094329;28;8922;-61
2022/10/13 07:30:31;;;;;;;;;13.00;12.75;;;;;12.97;69.05;100092.44;5094244;28;8830;-60
2022/10/13 07:32:59;;;;;;;;;10.00;9.50;;;;;13.03;68.87;100091.91;5094181;28;8830;-60
2022/10/13 07:35:27;;;;;;;;;11.00;9.00;;;;;13.10;68.99;100078.84;5093956;28;8956;-60
2022/10/13 07:37:57;;;;;;;;;11.50;11.50;;;;;13.16;69.06;100083.66;5094383;28;8845;-62
2022/10/13 07:40:25;;;;;;;;;11.00;8.50;;;;;13.21;69.27;100073.44;5093958;28;8833;-63
2022/10/13 07:42:54;;;;;;;;;10.00;9.75;;;;;13.26;68.33;100074.69;5094215;28;8903;-60
2022/10/13 07:45:21;;;;;;;;;9.25;9.00;;;;;13.30;69.14;100078.78;5094411;28;8870;-60
2022/10/13 07:47:49;;;;;;;;;11.50;11.00;;;;;13.35;69.03;100076.56;5093904;28;8830;-61
2022/10/13 07:50:17;;;;;;;;;11.00;10.50;;;;;13.40;68.91;100081.50;5094639;28;8822;-61
2022/10/13 07:52:45;;;;;;;;;11.25;9.50;;;;;13.48;68.26;100081.66;5094595;28;8837;-60
2022/10/13 07:55:13;;;;;;;;;11.50;11.00;;;;;13.56;68.48;100076.47;5094163;28;9511;-61
2022/10/13 07:57:40;;;;;;;;;12.75;12.25;;;;;13.66;68.40;100075.50;5094694;28;8860;-61
2022/10/13 08:00:09;;;;;;;;;10.25;9.00;;;;;13.83;67.66;100074.81;5094224;28;8856;-62
2022/10/13 08:02:37;;;;;;;;;9.00;7.00;;;;;13.99;67.70;100080.50;5093998;28;8874;-62
2022/10/13 08:05:05;;;;;;;;;10.50;10.25;;;;;14.17;67.07;100077.94;5096396;28;8810;-61
2022/10/13 08:07:33;;;;;;;;;14.00;11.00;;;;;14.32;66.83;100074.72;5097979;28;8833;-61
2022/10/13 08:10:01;;;;;;;;;10.00;9.00;;;;;14.50;66.46;100073.00;5098014;28;8822;-62
2022/10/13 08:12:29;;;;;;;;;8.50;8.50;;;;;14.71;66.32;100070.16;5098163;28;8830;-61
2022/10/13 08:14:57;;;;;;;;;13.25;12.50;;;;;14.92;66.53;100074.31;5097648;28;8833;-62
2022/10/13 08:17:29;;;;;;;;;10.00;10.00;;;;;15.11;65.57;100068.88;5098384;28;8856;-63
2022/10/13 08:19:57;;;;;;;;;9.75;9.50;;;;;15.27;65.18;100070.94;5097933;28;8826;-60
2022/10/13 08:22:26;;;;;;;;;9.75;9.75;;;;;15.39;65.37;100077.84;5097511;28;8853;-61
2022/10/13 08:24:56;;;;;;;;;9.50;7.75;;;;;15.46;65.12;100078.94;5097276;28;8834;-62
2022/10/13 08:27:23;;;;;;;;;9.00;9.00;;;;;15.50;65.18;100064.19;5097310;28;8845;-60
2022/10/13 08:30:11;;;;;;;;;9.25;8.00;;;;;15.57;64.67;100071.53;5096542;28;8857;-61
2022/10/13 08:32:40;;;;;;;;;9.50;8.00;;;;;15.60;65.08;100062.28;5097371;28;9596;-61
2022/10/13 08:35:08;;;;;;;;;9.50;7.50;;;;;15.61;65.52;100054.09;5097135;28;8838;-61
2022/10/13 08:37:36;;;;;;;;;10.00;9.25;;;;;15.60;65.15;100057.78;5097084;28;8945;-63
2022/10/13 08:40:04;;;;;;;;;6.00;6.00;;;;;15.60;65.28;100056.94;5096306;28;8876;-60
2022/10/13 08:42:32;;;;;;;;;12.00;10.00;;;;;15.62;65.55;100063.84;5095864;28;8856;-60
2022/10/13 08:45:00;;;;;;;;;12.25;10.00;;;;;15.64;65.08;100069.91;5096514;28;8834;-61
2022/10/13 08:47:48;;;;;;;;;5.75;5.75;;;;;15.68;64.72;100073.13;5096281;28;8892;-62
2022/10/13 08:50:19;;;;;;;;;10.00;9.00;;;;;15.70;65.43;100076.53;5096577;28;8822;-60
2022/10/13 08:52:47;;;;;;;;;9.00;9.00;;;;;15.76;65.25;100074.06;5095790;28;8826;-61
2022/10/13 08:55:15;;;;;;;;;9.50;7.50;;;;;15.87;64.66;100073.88;5096368;28;8822;-61
2022/10/13 08:57:43;;;;;;;;;9.50;9.25;;;;;15.99;64.97;100078.00;5095047;28;8810;-61
2022/10/13 09:00:11;;;;;;;;;7.00;7.00;;;;;16.15;63.83;100056.66;5094679;28;8971;-61
2022/10/13 09:02:39;;;;;;;;;11.50;11.50;;;;;16.35;63.80;100066.25;5095255;28;8845;-60
2022/10/13 09:05:07;;;;;;;;;11.50;9.50;;;;;16.50;63.69;100064.72;5094750;28;8844;-61
2022/10/13 09:07:35;;;;;;;;;9.25;9.00;;;;;16.63;63.93;100065.16;5094335;28;8830;-60
2022/10/13 09:10:03;;;;;;;;;11.00;9.75;;;;;16.70;63.68;100064.34;5094685;28;8858;-60
2022/10/13 09:12:32;;;;;;;;;7.00;6.00;;;;;16.82;63.50;100062.25;5095392;28;8829;-60
2022/10/13 09:15:01;;;;;;;;;12.50;11.00;;;;;16.97;62.83;100066.91;5094928;28;8850;-61
2022/10/13 09:17:29;;;;;;;;;13.00;10.00;;;;;17.11;62.63;100065.44;5095655;28;8981;-63
2022/10/13 09:19:57;;;;;;;;;11.00;10.00;;;;;17.24;62.54;100061.31;5096074;28;8829;-61
2022/10/13 09:22:25;;;;;;;;;13.00;12.00;;;;;17.35;62.66;100055.66;5095624;28;8860;-62
2022/10/13 09:24:53;;;;;;;;;7.50;7.25;;;;;17.44;61.88;100062.78;5094850;28;8842;-60
2022/10/13 09:27:21;;;;;;;;;10.00;9.75;;;;;17.47;62.28;100054.38;5094597;28;8868;-61
2022/10/13 09:29:49;;;;;;;;;9.00;8.60;;;;;17.57;61.62;100048.84;5094731;28;8882;-61
2022/10/13 09:32:17;;;;;;;;;9.20;9.20;;;;;17.72;61.91;100053.44;5094365;28;8822;-60
2022/10/13 09:34:46;;;;;;;;;9.40;9.00;;;;;18.00;61.54;100045.94;5095246;28;8864;-61
2022/10/13 09:37:14;;;;;;;;;10.80;6.80;;;;;18.21;60.81;100044.41;5094953;28;8829;-61
2022/10/13 09:39:42;;;;;;;;;9.00;9.00;;;;;18.33;60.41;100037.72;5094341;28;8895;-60
2022/10/13 09:42:10;;;;;;;;;9.60;7.60;;;;;18.35;60.55;100041.09;5094593;28;8830;-60
2022/10/13 09:44:38;;;;;;;;;7.00;7.00;;;;;18.27;60.66;100038.34;5094930;28;8837;-61
2022/10/13 09:47:06;;;;;;;;;6.60;6.00;;;;;18.20;60.93;100040.03;5094814;28;8846;-61
2022/10/13 09:49:35;;;;;;;;;10.00;7.80;;;;;18.10;61.08;100033.97;5094260;28;8822;-63
2022/10/13 09:52:02;;;;;;;;;9.00;7.80;;;;;18.01;61.71;100032.28;5093672;28;8854;-61
2022/10/13 09:54:30;;;;;;;;;10.60;9.60;;;;;18.15;60.91;100031.59;5093751;28;8846;-60
2022/10/13 09:56:58;;;;;;;;;7.40;7.00;;;;;18.29;60.56;100025.53;5093198;28;9567;-61
2022/10/13 09:59:26;;;;;;;;;9.00;8.60;;;;;18.29;60.81;100030.09;5093381;28;8842;-60
2022/10/13 10:01:54;;;;;;;;;7.00;6.60;;;;;18.28;60.66;100028.44;5093390;28;8988;-60
2022/10/13 10:04:22;;;;;;;;;9.00;9.00;;;;;18.24;60.83;100035.16;5093550;28;8818;-60
2022/10/13 10:06:50;;;;;;;;;6.40;6.00;;;;;18.15;61.19;100028.91;5094635;28;8830;-60
2022/10/13 10:09:18;;;;;;;;;9.80;9.40;;;;;18.09;60.80;100034.13;5094237;28;8895;-60
2022/10/13 10:11:47;;;;;;;;;6.40;6.40;;;;;17.99;61.45;100028.91;5094557;28;8826;-60
2022/10/13 10:14:15;;;;;;;;;10.00;8.40;;;;;17.87;61.48;100029.38;5094426;28;8838;-60
2022/10/13 10:16:42;;;;;;;;;8.60;7.80;;;;;17.82;61.53;100039.81;5094026;28;8883;-62
2022/10/13 10:19:10;;;;;;;;;8.60;7.80;;;;;17.79;61.49;100030.22;5094174;28;8857;-61
2022/10/13 10:21:39;;;;;;;;;8.60;8.60;;;;;17.83;61.62;100023.50;5093857;28;8830;-61
2022/10/13 10:24:06;;;;;;;;;12.20;11.60;;;;;17.98;61.57;100027.22;5093513;28;8990;-62
2022/10/13 10:26:35;;;;;;;;;9.20;8.20;;;;;18.26;60.73;100025.91;5093655;28;8849;-60
2022/10/13 10:29:03;;;;;;;;;12.40;9.40;;;;;18.49;60.37;100009.88;5094499;28;8938;-61
2022/10/13 10:31:31;;;;;;;;;9.00;6.40;;;;;18.57;59.82;100010.72;5093627;28;8893;-61
2022/10/13 10:33:59;;;;;;;;;9.80;9.20;;;;;18.65;60.13;100007.16;5093373;28;8868;-61
2022/10/13 10:36:27;;;;;;;;;8.20;7.40;;;;;18.69;59.87;100005.81;5094419;28;9491;-61
2022/10/13 10:38:55;;;;;;;;;10.00;9.40;;;;;19.01;59.21;100000.31;5094299;28;8952;-61
2022/10/13 10:41:24;;;;;;;;;9.60;9.60;;;;;19.50;58.19;100002.66;5092806;28;8838;-61
2022/10/13 10:43:52;;;;;;;;;9.20;9.00;;;;;19.83;57.29;100003.31;5092946;28;8922;-61
2022/10/13 10:46:20;;;;;;;;;7.00;7.00;;;;;19.88;57.65;100001.75;5092184;28;8846;-61
2022/10/13 10:48:49;;;;;;;;;9.60;7.00;;;;;19.82;57.99;99996.22;5091928;28;8854;-61
2022/10/13 10:51:17;;;;;;;;;10.80;10.00;;;;;19.69;57.95;99990.56;5092910;28;8830;-62
2022/10/13 10:53:45;;;;;;;;;7.20;6.40;;;;;19.60;58.52;99997.03;5092828;28;8910;-60
2022/10/13 10:56:13;;;;;;;;;9.80;9.20;;;;;19.51;58.54;99984.59;5094228;28;8842;-61
2022/10/13 10:58:41;;;;;;;;;6.80;6.80;;;;;19.48;58.63;99980.38;5092224;28;8842;-61
2022/10/13 11:01:09;;;;;;;;;11.40;9.80;;;;;19.49;58.22;99984.78;5092664;28;8853;-61
2022/10/13 11:03:38;;;;;;;;;8.60;8.60;;;;;19.53;58.13;99983.41;5092610;28;9519;-61
2022/10/13 11:06:05;;;;;;;;;9.80;9.80;;;;;19.53;58.05;99975.31;5092104;28;8853;-60
2022/10/13 11:08:33;;;;;;;;;9.60;8.20;;;;;19.47;58.39;99969.75;5093129;28;8846;-60
2022/10/13 11:11:01;;;;;;;;;9.80;8.60;;;;;19.52;58.20;99970.94;5092891;28;8856;-61
2022/10/13 11:13:29;;;;;;;;;8.40;8.40;;;;;19.63;58.40;99975.91;5093185;28;8841;-61
2022/10/13 11:15:57;;;;;;;;;10.00;8.20;;;;;19.66;58.30;99967.44;5093540;28;8927;-60
2022/10/13 11:18:25;;;;;;;;;9.80;5.60;;;;;19.81;57.93;99959.41;5093187;28;8850;-61
2022/10/13 11:20:53;;;;;;;;;8.20;8.20;;;;;19.88;57.37;99961.19;5093406;28;8837;-61
2022/10/13 11:23:21;;;;;;;;;3.60;2.40;;;;;20.05;57.36;99953.84;5092557;28;8836;-61
2022/10/13 11:25:49;;;;;;;;;8.20;7.60;;;;;20.26;56.59;99957.53;5093061;28;8838;-60
2022/10/13 11:28:17;;;;;;;;;9.20;8.40;;;;;20.34;56.23;99943.91;5092828;28;8822;-60
2022/10/13 11:30:46;;;;;;;;;7.40;7.40;;;;;20.18;56.88;99946.78;5092631;28;8854;-61